sensor_id;sensor_type;location;lat;lon;timestamp;temperature;humidity
52187;DHT22;38161;53.020;6.598;2023-06-10T00:00:37;16.60;99.90
52187;DHT22;38161;53.020;6.598;2023-06-10T00:03:03;16.60;99.90
52187;DHT22;38161;53.020;6.598;2023-06-10T00:05:29;16.60;99.90
52187;DHT22;38161;53.020;6.598;2023-06-10T00:07:57;16.60;99.90
52187;DHT22;38161;53.020;6.598;2023-06-10T00:10:23;16.60;99.90
52187;DHT22;38161;53.020;6.598;2023-06-10T00:12:49;16.50;99.90
52187;DHT22;38161;53.020;6.598;2023-06-10T00:15:17;16.50;99.90
52187;DHT22;38161;53.020;6.598;2023-06-10T00:17:43;16.40;99.90
52187;DHT22;38161;53.020;6.598;2023-06-10T00:20:10;16.40;99.90
52187;DHT22;38161;53.020;6.598;2023-06-10T00:22:38;16.40;99.90
52187;DHT22;38161;53.020;6.598;2023-06-10T00:25:08;16.30;99.90
52187;DHT22;38161;53.020;6.598;2023-06-10T00:27:34;16.30;99.90
52187;DHT22;38161;53.020;6.598;2023-06-10T00:30:04;16.20;99.90
52187;DHT22;38161;53.020;6.598;2023-06-10T00:32:36;16.20;99.90
52187;DHT22;38161;53.020;6.598;2023-06-10T00:35:06;16.20;99.90
52187;DHT22;38161;53.020;6.598;2023-06-10T00:37:32;16.20;99.90
52187;DHT22;38161;53.020;6.598;2023-06-10T00:40:00;16.10;99.90
52187;DHT22;38161;53.020;6.598;2023-06-10T00:42:27;16.10;99.90
52187;DHT22;38161;53.020;6.598;2023-06-10T00:44:54;16.00;99.90
52187;DHT22;38161;53.020;6.598;2023-06-10T00:47:20;16.00;99.90
52187;DHT22;38161;53.020;6.598;2023-06-10T00:49:47;16.00;99.90
52187;DHT22;38161;53.020;6.598;2023-06-10T00:52:14;15.90;99.90
52187;DHT22;38161;53.020;6.598;2023-06-10T00:54:41;15.90;99.90
52187;DHT22;38161;53.020;6.598;2023-06-10T00:57:07;15.90;99.90
52187;DHT22;38161;53.020;6.598;2023-06-10T00:59:34;15.90;99.90
52187;DHT22;38161;53.020;6.598;2023-06-10T01:02:00;15.90;99.90
52187;DHT22;38161;53.020;6.598;2023-06-10T01:04:26;15.80;99.90
52187;DHT22;38161;53.020;6.598;2023-06-10T01:06:54;15.80;99.90
52187;DHT22;38161;53.020;6.598;2023-06-10T01:09:38;15.80;99.90
52187;DHT22;38161;53.020;6.598;2023-06-10T01:14:59;15.80;99.90
52187;DHT22;38161;53.020;6.598;2023-06-10T01:17:26;15.70;99.90
52187;DHT22;38161;53.020;6.598;2023-06-10T01:19:56;15.70;99.90
52187;DHT22;38161;53.020;6.598;2023-06-10T01:22:23;15.70;99.90
52187;DHT22;38161;53.020;6.598;2023-06-10T01:24:49;15.70;99.90
52187;DHT22;38161;53.020;6.598;2023-06-10T01:27:21;15.60;99.90
52187;DHT22;38161;53.020;6.598;2023-06-10T01:29:56;15.60;99.90
52187;DHT22;38161;53.020;6.598;2023-06-10T01:32:29;15.60;99.90
52187;DHT22;38161;53.020;6.598;2023-06-10T01:34:57;15.50;99.90
52187;DHT22;38161;53.020;6.598;2023-06-10T01:37:25;15.50;99.90
52187;DHT22;38161;53.020;6.598;2023-06-10T01:39:52;15.50;99.90
52187;DHT22;38161;53.020;6.598;2023-06-10T01:42:23;15.50;99.90
52187;DHT22;38161;53.020;6.598;2023-06-10T01:44:50;15.40;99.90
52187;DHT22;38161;53.020;6.598;2023-06-10T01:47:16;15.30;99.90
52187;DHT22;38161;53.020;6.598;2023-06-10T01:49:42;15.30;99.90
52187;DHT22;38161;53.020;6.598;2023-06-10T01:52:08;15.30;99.90
52187;DHT22;38161;53.020;6.598;2023-06-10T01:54:34;15.30;99.90
52187;DHT22;38161;53.020;6.598;2023-06-10T01:57:02;15.20;99.90
52187;DHT22;38161;53.020;6.598;2023-06-10T01:59:28;15.20;99.90
52187;DHT22;38161;53.020;6.598;2023-06-10T02:01:54;15.10;99.90
52187;DHT22;38161;53.020;6.598;2023-06-10T02:04:20;15.00;99.90
52187;DHT22;38161;53.020;6.598;2023-06-10T02:06:46;15.00;99.90
52187;DHT22;38161;53.020;6.598;2023-06-10T02:09:12;15.00;99.90
52187;DHT22;38161;53.020;6.598;2023-06-10T02:11:38;15.00;99.90
52187;DHT22;38161;53.020;6.598;2023-06-10T02:14:03;14.90;99.90
52187;DHT22;38161;53.020;6.598;2023-06-10T02:16:29;14.90;99.90
52187;DHT22;38161;53.020;6.598;2023-06-10T02:18:56;14.80;99.90
52187;DHT22;38161;53.020;6.598;2023-06-10T02:21:23;14.80;99.90
52187;DHT22;38161;53.020;6.598;2023-06-10T02:23:49;14.70;99.90
52187;DHT22;38161;53.020;6.598;2023-06-10T02:26:15;14.70;99.90
52187;DHT22;38161;53.020;6.598;2023-06-10T02:28:43;14.70;99.90
52187;DHT22;38161;53.020;6.598;2023-06-10T02:31:09;14.60;99.90
52187;DHT22;38161;53.020;6.598;2023-06-10T02:33:36;14.60;99.90
52187;DHT22;38161;53.020;6.598;2023-06-10T02:36:06;14.50;99.90
52187;DHT22;38161;53.020;6.598;2023-06-10T02:38:32;14.50;99.90
52187;DHT22;38161;53.020;6.598;2023-06-10T02:40:57;14.40;99.90
52187;DHT22;38161;53.020;6.598;2023-06-10T02:43:23;14.40;99.90
52187;DHT22;38161;53.020;6.598;2023-06-10T02:45:49;14.40;99.90
52187;DHT22;38161;53.020;6.598;2023-06-10T02:48:15;14.30;99.90
52187;DHT22;38161;53.020;6.598;2023-06-10T02:50:40;14.30;99.90
52187;DHT22;38161;53.020;6.598;2023-06-10T02:53:06;14.30;99.90
52187;DHT22;38161;53.020;6.598;2023-06-10T02:55:32;14.30;99.90
52187;DHT22;38161;53.020;6.598;2023-06-10T02:57:58;14.20;99.90
52187;DHT22;38161;53.020;6.598;2023-06-10T03:00:26;14.20;99.90
52187;DHT22;38161;53.020;6.598;2023-06-10T03:02:52;14.20;99.90
52187;DHT22;38161;53.020;6.598;2023-06-10T03:05:18;14.20;99.90
52187;DHT22;38161;53.020;6.598;2023-06-10T03:07:44;14.10;99.90
52187;DHT22;38161;53.020;6.598;2023-06-10T03:10:11;14.10;99.90
52187;DHT22;38161;53.020;6.598;2023-06-10T03:12:37;14.10;99.90
52187;DHT22;38161;53.020;6.598;2023-06-10T03:15:04;14.10;99.90
52187;DHT22;38161;53.020;6.598;2023-06-10T03:17:30;14.00;99.90
52187;DHT22;38161;53.020;6.598;2023-06-10T03:19:56;14.10;99.90
52187;DHT22;38161;53.020;6.598;2023-06-10T03:22:22;14.00;99.90
52187;DHT22;38161;53.020;6.598;2023-06-10T03:24:47;14.00;99.90
52187;DHT22;38161;53.020;6.598;2023-06-10T03:27:15;14.00;99.90
52187;DHT22;38161;53.020;6.598;2023-06-10T03:29:42;14.00;99.90
52187;DHT22;38161;53.020;6.598;2023-06-10T03:32:08;14.00;99.90
52187;DHT22;38161;53.020;6.598;2023-06-10T03:34:34;14.00;99.90
52187;DHT22;38161;53.020;6.598;2023-06-10T03:37:00;14.00;99.90
52187;DHT22;38161;53.020;6.598;2023-06-10T03:39:26;13.90;99.90
52187;DHT22;38161;53.020;6.598;2023-06-10T03:41:54;13.90;99.90
52187;DHT22;38161;53.020;6.598;2023-06-10T03:44:21;13.90;99.90
52187;DHT22;38161;53.020;6.598;2023-06-10T03:46:47;13.90;99.90
52187;DHT22;38161;53.020;6.598;2023-06-10T03:49:13;13.90;99.90
52187;DHT22;38161;53.020;6.598;2023-06-10T03:51:41;13.90;99.90
52187;DHT22;38161;53.020;6.598;2023-06-10T03:54:06;13.90;99.90
52187;DHT22;38161;53.020;6.598;2023-06-10T03:56:32;13.90;99.90
52187;DHT22;38161;53.020;6.598;2023-06-10T03:58:58;13.90;99.90
52187;DHT22;38161;53.020;6.598;2023-06-10T04:01:24;13.90;99.90
52187;DHT22;38161;53.020;6.598;2023-06-10T04:03:50;13.90;99.90
52187;DHT22;38161;53.020;6.598;2023-06-10T04:06:17;13.90;99.90
52187;DHT22;38161;53.020;6.598;2023-06-10T04:08:43;13.90;99.90
52187;DHT22;38161;53.020;6.598;2023-06-10T04:11:11;13.90;99.90
52187;DHT22;38161;53.020;6.598;2023-06-10T04:13:37;13.90;99.90
52187;DHT22;38161;53.020;6.598;2023-06-10T04:16:03;13.80;99.90
52187;DHT22;38161;53.020;6.598;2023-06-10T04:18:29;13.90;99.90
52187;DHT22;38161;53.020;6.598;2023-06-10T04:20:55;13.90;99.90
52187;DHT22;38161;53.020;6.598;2023-06-10T04:23:22;13.90;99.90
52187;DHT22;38161;53.020;6.598;2023-06-10T04:25:48;13.90;99.90
52187;DHT22;38161;53.020;6.598;2023-06-10T04:28:14;13.90;99.90
52187;DHT22;38161;53.020;6.598;2023-06-10T04:30:40;13.90;99.90
52187;DHT22;38161;53.020;6.598;2023-06-10T04:33:07;13.90;99.90
52187;DHT22;38161;53.020;6.598;2023-06-10T04:35:34;13.90;99.90
52187;DHT22;38161;53.020;6.598;2023-06-10T04:38:00;13.90;99.90
52187;DHT22;38161;53.020;6.598;2023-06-10T04:40:31;14.00;99.90
52187;DHT22;38161;53.020;6.598;2023-06-10T04:42:56;13.90;99.90
52187;DHT22;38161;53.020;6.598;2023-06-10T04:45:22;14.00;99.90
52187;DHT22;38161;53.020;6.598;2023-06-10T04:47:48;14.00;99.90
52187;DHT22;38161;53.020;6.598;2023-06-10T04:50:14;14.10;99.90
52187;DHT22;38161;53.020;6.598;2023-06-10T04:52:41;14.10;99.90
52187;DHT22;38161;53.020;6.598;2023-06-10T04:55:07;14.10;99.90
52187;DHT22;38161;53.020;6.598;2023-06-10T04:57:34;14.20;99.90
52187;DHT22;38161;53.020;6.598;2023-06-10T05:00:02;14.20;99.90
52187;DHT22;38161;53.020;6.598;2023-06-10T05:02:31;14.30;99.90
52187;DHT22;38161;53.020;6.598;2023-06-10T05:04:57;14.30;99.90
52187;DHT22;38161;53.020;6.598;2023-06-10T05:07:24;14.40;99.90
52187;DHT22;38161;53.020;6.598;2023-06-10T05:09:49;14.40;99.90
52187;DHT22;38161;53.020;6.598;2023-06-10T05:12:15;14.50;99.90
52187;DHT22;38161;53.020;6.598;2023-06-10T05:14:41;14.50;99.90
52187;DHT22;38161;53.020;6.598;2023-06-10T05:17:08;14.60;99.90
52187;DHT22;38161;53.020;6.598;2023-06-10T05:19:34;14.60;99.90
52187;DHT22;38161;53.020;6.598;2023-06-10T05:22:01;14.60;99.90
52187;DHT22;38161;53.020;6.598;2023-06-10T05:24:28;14.70;99.90
52187;DHT22;38161;53.020;6.598;2023-06-10T05:26:54;14.80;99.90
52187;DHT22;38161;53.020;6.598;2023-06-10T05:29:20;14.80;99.90
52187;DHT22;38161;53.020;6.598;2023-06-10T05:31:46;14.90;99.90
52187;DHT22;38161;53.020;6.598;2023-06-10T05:34:12;14.90;99.90
52187;DHT22;38161;53.020;6.598;2023-06-10T05:36:38;15.00;99.90
52187;DHT22;38161;53.020;6.598;2023-06-10T05:39:04;15.00;99.90
52187;DHT22;38161;53.020;6.598;2023-06-10T05:41:30;15.10;99.90
52187;DHT22;38161;53.020;6.598;2023-06-10T05:43:56;15.10;99.90
52187;DHT22;38161;53.020;6.598;2023-06-10T05:46:22;15.20;99.90
52187;DHT22;38161;53.020;6.598;2023-06-10T05:48:48;15.30;99.90
52187;DHT22;38161;53.020;6.598;2023-06-10T05:51:13;15.30;99.90
52187;DHT22;38161;53.020;6.598;2023-06-10T05:53:39;15.40;99.90
52187;DHT22;38161;53.020;6.598;2023-06-10T05:56:05;15.50;99.90
52187;DHT22;38161;53.020;6.598;2023-06-10T05:58:31;15.60;99.90
52187;DHT22;38161;53.020;6.598;2023-06-10T06:00:57;15.60;99.90
52187;DHT22;38161;53.020;6.598;2023-06-10T06:03:23;15.70;99.90
52187;DHT22;38161;53.020;6.598;2023-06-10T06:05:49;15.70;99.90
52187;DHT22;38161;53.020;6.598;2023-06-10T06:08:14;15.90;99.90
52187;DHT22;38161;53.020;6.598;2023-06-10T06:10:44;15.90;99.90
52187;DHT22;38161;53.020;6.598;2023-06-10T06:13:10;16.00;99.90
52187;DHT22;38161;53.020;6.598;2023-06-10T06:15:36;16.10;99.90
52187;DHT22;38161;53.020;6.598;2023-06-10T06:18:02;16.20;99.90
52187;DHT22;38161;53.020;6.598;2023-06-10T06:20:28;16.30;99.90
52187;DHT22;38161;53.020;6.598;2023-06-10T06:22:54;16.40;99.90
52187;DHT22;38161;53.020;6.598;2023-06-10T06:25:20;16.40;99.90
52187;DHT22;38161;53.020;6.598;2023-06-10T06:27:46;16.50;99.90
52187;DHT22;38161;53.020;6.598;2023-06-10T06:30:12;16.60;99.90
52187;DHT22;38161;53.020;6.598;2023-06-10T06:32:38;16.70;99.90
52187;DHT22;38161;53.020;6.598;2023-06-10T06:35:04;16.80;99.90
52187;DHT22;38161;53.020;6.598;2023-06-10T06:37:33;16.80;99.90
52187;DHT22;38161;53.020;6.598;2023-06-10T06:40:01;17.00;99.90
52187;DHT22;38161;53.020;6.598;2023-06-10T06:42:28;17.10;99.90
52187;DHT22;38161;53.020;6.598;2023-06-10T06:44:56;17.20;99.90
52187;DHT22;38161;53.020;6.598;2023-06-10T06:47:22;17.20;99.90
52187;DHT22;38161;53.020;6.598;2023-06-10T06:49:48;17.30;99.90
52187;DHT22;38161;53.020;6.598;2023-06-10T06:52:15;17.40;99.90
52187;DHT22;38161;53.020;6.598;2023-06-10T06:54:41;17.40;99.90
52187;DHT22;38161;53.020;6.598;2023-06-10T06:57:07;17.50;99.90
52187;DHT22;38161;53.020;6.598;2023-06-10T06:59:33;17.60;99.90
52187;DHT22;38161;53.020;6.598;2023-06-10T07:01:59;17.60;99.90
52187;DHT22;38161;53.020;6.598;2023-06-10T07:04:25;17.70;99.90
52187;DHT22;38161;53.020;6.598;2023-06-10T07:06:51;17.80;99.90
52187;DHT22;38161;53.020;6.598;2023-06-10T07:09:18;17.90;99.90
52187;DHT22;38161;53.020;6.598;2023-06-10T07:11:44;18.00;99.90
52187;DHT22;38161;53.020;6.598;2023-06-10T07:14:10;18.10;99.90
52187;DHT22;38161;53.020;6.598;2023-06-10T07:16:35;18.20;99.90
52187;DHT22;38161;53.020;6.598;2023-06-10T07:19:01;18.30;99.90
52187;DHT22;38161;53.020;6.598;2023-06-10T07:21:29;18.30;99.90
52187;DHT22;38161;53.020;6.598;2023-06-10T07:23:55;18.40;99.90
52187;DHT22;38161;53.020;6.598;2023-06-10T07:26:24;18.50;99.90
52187;DHT22;38161;53.020;6.598;2023-06-10T07:28:51;18.60;99.90
52187;DHT22;38161;53.020;6.598;2023-06-10T07:31:18;18.70;99.90
52187;DHT22;38161;53.020;6.598;2023-06-10T07:33:44;18.90;99.90
52187;DHT22;38161;53.020;6.598;2023-06-10T07:36:10;18.90;99.90
52187;DHT22;38161;53.020;6.598;2023-06-10T07:38:36;19.00;99.90
52187;DHT22;38161;53.020;6.598;2023-06-10T07:41:03;19.00;99.90
52187;DHT22;38161;53.020;6.598;2023-06-10T07:43:29;19.10;99.90
52187;DHT22;38161;53.020;6.598;2023-06-10T07:45:55;19.20;99.90
52187;DHT22;38161;53.020;6.598;2023-06-10T07:48:20;19.30;99.90
52187;DHT22;38161;53.020;6.598;2023-06-10T07:50:47;19.30;99.90
52187;DHT22;38161;53.020;6.598;2023-06-10T07:53:13;19.40;99.90
52187;DHT22;38161;53.020;6.598;2023-06-10T07:55:39;19.50;99.90
52187;DHT22;38161;53.020;6.598;2023-06-10T07:58:04;19.60;99.90
52187;DHT22;38161;53.020;6.598;2023-06-10T08:00:30;19.70;99.90
52187;DHT22;38161;53.020;6.598;2023-06-10T08:02:56;19.80;99.90
52187;DHT22;38161;53.020;6.598;2023-06-10T08:05:22;19.90;99.90
52187;DHT22;38161;53.020;6.598;2023-06-10T08:07:48;20.00;99.90
52187;DHT22;38161;53.020;6.598;2023-06-10T08:10:14;20.10;99.90
52187;DHT22;38161;53.020;6.598;2023-06-10T08:12:40;20.20;99.90
52187;DHT22;38161;53.020;6.598;2023-06-10T08:15:06;20.30;99.90
52187;DHT22;38161;53.020;6.598;2023-06-10T08:17:32;20.40;99.90
52187;DHT22;38161;53.020;6.598;2023-06-10T08:19:58;20.50;99.90
52187;DHT22;38161;53.020;6.598;2023-06-10T08:22:24;20.50;99.90
52187;DHT22;38161;53.020;6.598;2023-06-10T08:24:50;20.60;99.90
52187;DHT22;38161;53.020;6.598;2023-06-10T08:27:16;20.80;99.90
52187;DHT22;38161;53.020;6.598;2023-06-10T08:29:42;20.80;99.90
52187;DHT22;38161;53.020;6.598;2023-06-10T08:32:08;21.00;99.90
52187;DHT22;38161;53.020;6.598;2023-06-10T08:34:34;21.00;99.90
52187;DHT22;38161;53.020;6.598;2023-06-10T08:37:05;21.10;99.90
52187;DHT22;38161;53.020;6.598;2023-06-10T08:39:34;21.20;99.90
52187;DHT22;38161;53.020;6.598;2023-06-10T08:44:35;21.30;99.90
52187;DHT22;38161;53.020;6.598;2023-06-10T08:47:08;21.40;99.90
52187;DHT22;38161;53.020;6.598;2023-06-10T08:49:40;21.50;99.90
52187;DHT22;38161;53.020;6.598;2023-06-10T08:52:15;21.60;99.90
52187;DHT22;38161;53.020;6.598;2023-06-10T08:54:46;21.70;99.90
52187;DHT22;38161;53.020;6.598;2023-06-10T08:57:15;21.90;99.90
52187;DHT22;38161;53.020;6.598;2023-06-10T08:59:42;22.10;99.90
52187;DHT22;38161;53.020;6.598;2023-06-10T09:02:09;22.10;99.90
52187;DHT22;38161;53.020;6.598;2023-06-10T09:04:36;22.30;99.90
52187;DHT22;38161;53.020;6.598;2023-06-10T09:07:04;22.30;99.90
52187;DHT22;38161;53.020;6.598;2023-06-10T09:09:30;22.40;99.90
52187;DHT22;38161;53.020;6.598;2023-06-10T09:11:56;22.40;99.90
52187;DHT22;38161;53.020;6.598;2023-06-10T09:14:22;22.50;99.90
52187;DHT22;38161;53.020;6.598;2023-06-10T09:16:49;22.70;99.90
52187;DHT22;38161;53.020;6.598;2023-06-10T09:19:17;22.80;99.90
52187;DHT22;38161;53.020;6.598;2023-06-10T09:21:44;22.80;99.90
52187;DHT22;38161;53.020;6.598;2023-06-10T09:24:10;23.00;99.90
52187;DHT22;38161;53.020;6.598;2023-06-10T09:26:36;23.10;99.90
52187;DHT22;38161;53.020;6.598;2023-06-10T09:29:08;23.10;99.90
52187;DHT22;38161;53.020;6.598;2023-06-10T09:31:39;23.20;99.90
52187;DHT22;38161;53.020;6.598;2023-06-10T09:34:13;23.20;99.90
52187;DHT22;38161;53.020;6.598;2023-06-10T09:36:40;23.40;99.90
52187;DHT22;38161;53.020;6.598;2023-06-10T09:39:15;23.50;99.90
52187;DHT22;38161;53.020;6.598;2023-06-10T09:41:46;23.60;99.90
52187;DHT22;38161;53.020;6.598;2023-06-10T09:44:21;23.70;99.90
52187;DHT22;38161;53.020;6.598;2023-06-10T09:46:51;23.80;99.90
52187;DHT22;38161;53.020;6.598;2023-06-10T09:49:17;23.90;99.90
52187;DHT22;38161;53.020;6.598;2023-06-10T09:51:52;23.90;99.90
52187;DHT22;38161;53.020;6.598;2023-06-10T09:54:20;24.00;99.90
52187;DHT22;38161;53.020;6.598;2023-06-10T09:56:51;24.10;99.90
52187;DHT22;38161;53.020;6.598;2023-06-10T09:59:30;24.20;99.90
52187;DHT22;38161;53.020;6.598;2023-06-10T10:02:00;24.30;99.90
52187;DHT22;38161;53.020;6.598;2023-06-10T10:04:26;24.30;99.90
52187;DHT22;38161;53.020;6.598;2023-06-10T10:06:54;24.40;99.90
52187;DHT22;38161;53.020;6.598;2023-06-10T10:09:20;24.50;99.90
52187;DHT22;38161;53.020;6.598;2023-06-10T10:11:46;24.70;99.90
52187;DHT22;38161;53.020;6.598;2023-06-10T10:14:14;24.70;99.90
52187;DHT22;38161;53.020;6.598;2023-06-10T10:16:42;24.80;99.90
52187;DHT22;38161;53.020;6.598;2023-06-10T10:19:23;24.80;99.00
52187;DHT22;38161;53.020;6.598;2023-06-10T10:21:56;24.90;98.30
52187;DHT22;38161;53.020;6.598;2023-06-10T10:24:33;24.90;98.60
52187;DHT22;38161;53.020;6.598;2023-06-10T10:27:17;25.00;98.20
52187;DHT22;38161;53.020;6.598;2023-06-10T10:30:12;25.10;98.00
52187;DHT22;38161;53.020;6.598;2023-06-10T10:33:04;25.10;97.00
52187;DHT22;38161;53.020;6.598;2023-06-10T10:35:32;25.20;96.40
52187;DHT22;38161;53.020;6.598;2023-06-10T10:37:58;25.30;97.10
52187;DHT22;38161;53.020;6.598;2023-06-10T10:40:26;25.40;97.20
52187;DHT22;38161;53.020;6.598;2023-06-10T10:42:56;25.50;97.00
52187;DHT22;38161;53.020;6.598;2023-06-10T10:45:22;25.60;96.40
52187;DHT22;38161;53.020;6.598;2023-06-10T10:47:51;25.60;96.00
52187;DHT22;38161;53.020;6.598;2023-06-10T10:50:19;25.60;94.20
52187;DHT22;38161;53.020;6.598;2023-06-10T10:55:26;25.70;95.20
52187;DHT22;38161;53.020;6.598;2023-06-10T10:58:06;25.80;95.50
52187;DHT22;38161;53.020;6.598;2023-06-10T11:00:36;26.00;95.00
52187;DHT22;38161;53.020;6.598;2023-06-10T11:08:02;26.30;94.40
52187;DHT22;38161;53.020;6.598;2023-06-10T11:10:39;26.30;94.30
52187;DHT22;38161;53.020;6.598;2023-06-10T11:13:15;26.40;93.90
52187;DHT22;38161;53.020;6.598;2023-06-10T11:15:45;26.40;93.60
52187;DHT22;38161;53.020;6.598;2023-06-10T11:18:28;26.50;94.80
52187;DHT22;38161;53.020;6.598;2023-06-10T11:20:58;26.60;94.60
52187;DHT22;38161;53.020;6.598;2023-06-10T11:31:26;26.90;94.30
52187;DHT22;38161;53.020;6.598;2023-06-10T11:33:54;26.90;94.40
52187;DHT22;38161;53.020;6.598;2023-06-10T11:36:21;27.00;94.10
52187;DHT22;38161;53.020;6.598;2023-06-10T11:38:48;27.00;93.80
52187;DHT22;38161;53.020;6.598;2023-06-10T11:41:15;27.00;93.80
52187;DHT22;38161;53.020;6.598;2023-06-10T11:43:46;27.10;93.30
52187;DHT22;38161;53.020;6.598;2023-06-10T11:46:13;27.10;93.10
52187;DHT22;38161;53.020;6.598;2023-06-10T11:48:48;27.10;92.30
52187;DHT22;38161;53.020;6.598;2023-06-10T11:51:14;27.10;92.30
52187;DHT22;38161;53.020;6.598;2023-06-10T11:53:39;27.10;91.90
52187;DHT22;38161;53.020;6.598;2023-06-10T11:56:05;27.00;90.50
52187;DHT22;38161;53.020;6.598;2023-06-10T11:58:31;27.00;91.40
52187;DHT22;38161;53.020;6.598;2023-06-10T12:00:57;27.00;91.10
52187;DHT22;38161;53.020;6.598;2023-06-10T12:03:24;27.10;92.20
52187;DHT22;38161;53.020;6.598;2023-06-10T12:05:59;27.20;92.30
52187;DHT22;38161;53.020;6.598;2023-06-10T12:08:26;27.30;91.20
52187;DHT22;38161;53.020;6.598;2023-06-10T12:10:53;27.30;91.10
52187;DHT22;38161;53.020;6.598;2023-06-10T12:13:19;27.30;90.70
52187;DHT22;38161;53.020;6.598;2023-06-10T12:15:46;27.30;91.10
52187;DHT22;38161;53.020;6.598;2023-06-10T12:18:19;27.40;91.20
52187;DHT22;38161;53.020;6.598;2023-06-10T12:20:45;27.40;91.10
52187;DHT22;38161;53.020;6.598;2023-06-10T12:23:12;27.50;91.20
52187;DHT22;38161;53.020;6.598;2023-06-10T12:25:38;27.40;91.20
52187;DHT22;38161;53.020;6.598;2023-06-10T12:28:05;27.50;91.50
52187;DHT22;38161;53.020;6.598;2023-06-10T12:30:34;27.60;91.80
52187;DHT22;38161;53.020;6.598;2023-06-10T12:33:00;27.60;91.90
52187;DHT22;38161;53.020;6.598;2023-06-10T12:35:27;27.70;92.00
52187;DHT22;38161;53.020;6.598;2023-06-10T12:40:34;27.80;91.10
52187;DHT22;38161;53.020;6.598;2023-06-10T12:43:01;27.80;91.80
52187;DHT22;38161;53.020;6.598;2023-06-10T12:45:35;27.80;91.80
52187;DHT22;38161;53.020;6.598;2023-06-10T12:48:18;27.80;91.60
52187;DHT22;38161;53.020;6.598;2023-06-10T12:50:46;27.90;92.40
52187;DHT22;38161;53.020;6.598;2023-06-10T12:53:12;27.90;91.50
52187;DHT22;38161;53.020;6.598;2023-06-10T12:55:40;27.90;91.20
52187;DHT22;38161;53.020;6.598;2023-06-10T12:58:06;27.90;91.40
52187;DHT22;38161;53.020;6.598;2023-06-10T13:00:32;27.80;91.70
52187;DHT22;38161;53.020;6.598;2023-06-10T13:03:01;27.90;92.00
52187;DHT22;38161;53.020;6.598;2023-06-10T13:05:27;27.90;91.80
52187;DHT22;38161;53.020;6.598;2023-06-10T13:07:54;27.90;91.50
52187;DHT22;38161;53.020;6.598;2023-06-10T13:10:21;27.90;91.10
52187;DHT22;38161;53.020;6.598;2023-06-10T13:12:47;27.80;90.80
52187;DHT22;38161;53.020;6.598;2023-06-10T13:15:14;27.80;91.10
52187;DHT22;38161;53.020;6.598;2023-06-10T13:17:46;27.80;91.30
52187;DHT22;38161;53.020;6.598;2023-06-10T13:20:16;27.80;91.70
52187;DHT22;38161;53.020;6.598;2023-06-10T13:22:43;27.80;91.50
52187;DHT22;38161;53.020;6.598;2023-06-10T13:25:09;27.90;91.80
52187;DHT22;38161;53.020;6.598;2023-06-10T13:27:36;27.90;91.90
52187;DHT22;38161;53.020;6.598;2023-06-10T13:30:08;28.00;91.90
52187;DHT22;38161;53.020;6.598;2023-06-10T13:32:35;28.00;91.60
52187;DHT22;38161;53.020;6.598;2023-06-10T13:35:02;28.00;91.60
52187;DHT22;38161;53.020;6.598;2023-06-10T13:37:29;28.00;91.70
52187;DHT22;38161;53.020;6.598;2023-06-10T13:40:01;28.00;91.40
52187;DHT22;38161;53.020;6.598;2023-06-10T13:42:28;27.90;91.60
52187;DHT22;38161;53.020;6.598;2023-06-10T13:45:11;28.00;91.50
52187;DHT22;38161;53.020;6.598;2023-06-10T13:47:39;28.00;91.70
52187;DHT22;38161;53.020;6.598;2023-06-10T13:50:07;28.10;91.30
52187;DHT22;38161;53.020;6.598;2023-06-10T13:52:36;28.10;91.10
52187;DHT22;38161;53.020;6.598;2023-06-10T13:55:02;28.10;91.00
52187;DHT22;38161;53.020;6.598;2023-06-10T13:57:29;28.00;90.90
52187;DHT22;38161;53.020;6.598;2023-06-10T13:59:55;28.00;90.80
52187;DHT22;38161;53.020;6.598;2023-06-10T14:02:22;28.00;90.30
52187;DHT22;38161;53.020;6.598;2023-06-10T14:04:48;27.90;90.20
52187;DHT22;38161;53.020;6.598;2023-06-10T14:07:14;27.90;90.00
52187;DHT22;38161;53.020;6.598;2023-06-10T14:09:41;27.90;89.70
52187;DHT22;38161;53.020;6.598;2023-06-10T14:12:07;28.00;90.20
52187;DHT22;38161;53.020;6.598;2023-06-10T14:14:34;27.90;89.50
52187;DHT22;38161;53.020;6.598;2023-06-10T14:17:02;27.90;89.40
52187;DHT22;38161;53.020;6.598;2023-06-10T14:19:29;27.90;88.50
52187;DHT22;38161;53.020;6.598;2023-06-10T14:21:56;27.80;88.90
52187;DHT22;38161;53.020;6.598;2023-06-10T14:24:22;27.80;89.10
52187;DHT22;38161;53.020;6.598;2023-06-10T14:26:48;27.80;88.30
52187;DHT22;38161;53.020;6.598;2023-06-10T14:29:14;27.80;87.50
52187;DHT22;38161;53.020;6.598;2023-06-10T14:31:40;27.80;86.70
52187;DHT22;38161;53.020;6.598;2023-06-10T14:34:06;27.70;86.60
52187;DHT22;38161;53.020;6.598;2023-06-10T14:36:35;27.70;86.50
52187;DHT22;38161;53.020;6.598;2023-06-10T14:39:02;27.70;86.60
52187;DHT22;38161;53.020;6.598;2023-06-10T14:41:28;27.60;87.10
52187;DHT22;38161;53.020;6.598;2023-06-10T14:43:54;27.60;86.00
52187;DHT22;38161;53.020;6.598;2023-06-10T14:46:20;27.60;87.80
52187;DHT22;38161;53.020;6.598;2023-06-10T14:48:50;27.60;87.40
52187;DHT22;38161;53.020;6.598;2023-06-10T14:51:17;27.60;86.90
52187;DHT22;38161;53.020;6.598;2023-06-10T14:53:42;27.60;87.20
52187;DHT22;38161;53.020;6.598;2023-06-10T14:56:11;27.50;88.00
52187;DHT22;38161;53.020;6.598;2023-06-10T14:58:37;27.50;87.20
52187;DHT22;38161;53.020;6.598;2023-06-10T15:01:02;27.50;86.70
52187;DHT22;38161;53.020;6.598;2023-06-10T15:03:29;27.50;87.60
52187;DHT22;38161;53.020;6.598;2023-06-10T15:05:55;27.50;87.50
52187;DHT22;38161;53.020;6.598;2023-06-10T15:08:22;27.50;87.00
52187;DHT22;38161;53.020;6.598;2023-06-10T15:10:50;27.50;87.60
52187;DHT22;38161;53.020;6.598;2023-06-10T15:13:20;27.50;88.20
52187;DHT22;38161;53.020;6.598;2023-06-10T15:15:50;27.50;87.90
52187;DHT22;38161;53.020;6.598;2023-06-10T15:18:20;27.60;88.20
52187;DHT22;38161;53.020;6.598;2023-06-10T15:20:45;27.60;88.10
52187;DHT22;38161;53.020;6.598;2023-06-10T15:23:12;27.60;87.70
52187;DHT22;38161;53.020;6.598;2023-06-10T15:25:38;27.50;87.70
52187;DHT22;38161;53.020;6.598;2023-06-10T15:28:06;27.50;87.60
52187;DHT22;38161;53.020;6.598;2023-06-10T15:30:32;27.50;87.20
52187;DHT22;38161;53.020;6.598;2023-06-10T15:32:58;27.50;87.40
52187;DHT22;38161;53.020;6.598;2023-06-10T15:35:24;27.40;86.20
52187;DHT22;38161;53.020;6.598;2023-06-10T15:37:52;27.40;86.50
52187;DHT22;38161;53.020;6.598;2023-06-10T15:40:18;27.30;85.50
52187;DHT22;38161;53.020;6.598;2023-06-10T15:42:45;27.20;85.40
52187;DHT22;38161;53.020;6.598;2023-06-10T15:45:11;27.20;85.80
52187;DHT22;38161;53.020;6.598;2023-06-10T15:47:37;27.10;86.20
52187;DHT22;38161;53.020;6.598;2023-06-10T15:50:06;27.10;86.50
52187;DHT22;38161;53.020;6.598;2023-06-10T15:52:32;27.10;86.10
52187;DHT22;38161;53.020;6.598;2023-06-10T15:55:00;27.10;85.70